Terminal Aerodrome Forecast
Issued by NWS Wilmington, OH

Current Version | Previous Version | Text Only | Print | Product List | Glossary On
Versions: 1 2 3 4 5 6 7 8 9 10 11 12 13 14 15 16 17 18
787
FTUS41 KILN 211140
TAFCMH
TAF
KCMH 211140Z 2112/2212 34012G20KT P6SM -SHRA SCT025 OVC040
     FM211400 33011KT P6SM -SHRA BKN006 OVC050
     FM211700 35011KT P6SM VCSH OVC008
     FM212300 02011KT P6SM OVC010
     FM220400 03012KT 4SM -RA BR OVC010
     FM220700 04012KT 4SM -RA BR OVC007=

USA.gov is the U.S. government's official web portal to all federal, state and local government web resources and services.